Time;durP1;ratioP1;P1;durP2;ratioP2;P2;SDS_P1;SDS_P2;PMS_P1;PMS_P2;Temp;Humidity;BMP_temperature;BMP_pressure;BME280_temperature;BME280_humidity;BME280_pressure;Samples;Min_cycle;Max_cycle;Signal;HPM_P1;HPM_P2
2022/09/16 00:00:42;;;;;;;7.60;5.10;;;12.60;99.90;;;;;;4917329;29;20247;-85
2022/09/16 00:03:40;;;;;;;6.00;4.60;;;12.60;99.90;;;;;;4905734;29;20569;-82
2022/09/16 00:06:29;;;;;;;10.53;5.37;;;12.60;99.90;;;;;;4920269;29;20249;-88
2022/09/16 00:12:28;;;;;;;11.47;5.23;;;12.30;99.90;;;;;;4927725;23;20261;-83
2022/09/16 00:15:14;;;;;;;7.83;5.53;;;12.30;99.90;;;;;;4938724;29;20214;-81
2022/09/16 00:17:49;;;;;;;10.10;5.10;;;12.30;99.90;;;;;;4938551;29;20660;-81
2022/09/16 00:59:18;;;;;;;11.53;5.37;;;12.20;99.90;;;;;;4917249;29;20211;-85
2022/09/16 01:05:19;;;;;;;8.80;5.53;;;12.10;99.90;;;;;;5033083;23;20238;-86
2022/09/16 01:07:51;;;;;;;10.10;5.60;;;12.00;99.90;;;;;;4931339;29;20198;-84
2022/09/16 01:10:21;;;;;;;9.97;5.93;;;12.10;99.90;;;;;;4919411;29;20250;-89
2022/09/16 01:12:52;;;;;;;8.57;5.30;;;12.00;99.90;;;;;;4919069;29;20199;-88
2022/09/16 01:15:23;;;;;;;8.93;5.50;;;12.00;99.90;;;;;;4919277;29;20206;-88
2022/09/16 01:17:49;;;;;;;11.87;5.40;;;12.00;99.90;;;;;;4918790;29;20214;-88
2022/09/16 01:20:33;;;;;;;9.83;5.30;;;12.00;99.90;;;;;;4936284;29;20282;-86
2022/09/16 01:27:46;;;;;;;9.80;4.63;;;12.10;99.90;;;;;;4947301;23;20233;-83
2022/09/16 01:30:16;;;;;;;7.40;5.07;;;12.20;99.90;;;;;;4922021;28;20261;-84
2022/09/16 01:35:48;;;;;;;8.40;4.77;;;12.20;99.90;;;;;;4958294;23;20230;-83
2022/09/16 01:38:34;;;;;;;12.00;4.43;;;12.30;99.90;;;;;;4938925;29;20216;-80
2022/09/16 01:41:24;;;;;;;6.70;4.27;;;12.30;99.90;;;;;;4938107;29;20663;-82
2022/09/16 01:44:05;;;;;;;7.77;3.87;;;12.30;99.90;;;;;;4937717;29;20195;-84
2022/09/16 01:46:41;;;;;;;8.13;4.17;;;12.30;99.90;;;;;;4938575;29;20317;-85
2022/09/16 01:49:23;;;;;;;6.43;3.27;;;12.20;99.90;;;;;;4937033;28;20189;-85
2022/09/16 01:51:59;;;;;;;5.40;3.40;;;12.20;99.90;;;;;;4937398;29;20216;-88
2022/09/16 01:57:47;;;;;;;8.67;3.70;;;12.30;99.90;;;;;;4943046;23;20239;-85
2022/09/16 02:00:14;;;;;;;7.57;3.80;;;12.20;99.90;;;;;;4917878;29;20210;-87
2022/09/16 02:02:52;;;;;;;7.33;3.57;;;12.20;99.90;;;;;;4918903;29;20230;-86
2022/09/16 02:05:26;;;;;;;5.20;2.83;;;12.20;99.90;;;;;;4918367;29;20199;-85
2022/09/16 02:08:00;;;;;;;5.17;3.10;;;12.20;99.90;;;;;;4918425;29;20206;-84
2022/09/16 02:10:34;;;;;;;5.67;3.30;;;12.20;99.90;;;;;;4918909;29;20202;-84
2022/09/16 02:13:11;;;;;;;7.43;3.07;;;12.30;99.90;;;;;;4918421;29;20569;-85
2022/09/16 02:15:40;;;;;;;6.10;2.80;;;12.40;99.90;;;;;;4918383;29;20206;-83
2022/09/16 02:18:12;;;;;;;6.37;3.47;;;12.40;99.90;;;;;;4918762;29;20297;-86
2022/09/16 02:20:43;;;;;;;5.13;3.27;;;12.30;99.90;;;;;;4918168;29;20203;-86
2022/09/16 02:23:27;;;;;;;6.03;3.10;;;12.30;99.90;;;;;;4918602;29;20222;-86
2022/09/16 02:25:55;;;;;;;7.17;3.23;;;12.40;99.90;;;;;;4917953;29;20219;-86
2022/09/16 02:28:32;;;;;;;9.43;3.43;;;12.50;99.90;;;;;;4918384;29;20230;-86
2022/09/16 02:31:06;;;;;;;9.30;3.33;;;12.40;99.90;;;;;;4935257;29;20199;-82
2022/09/16 02:33:40;;;;;;;6.83;3.30;;;12.50;99.90;;;;;;4918030;29;20206;-84
2022/09/16 02:36:09;;;;;;;5.53;3.50;;;12.50;99.90;;;;;;4918225;29;20213;-86
2022/09/16 02:38:43;;;;;;;5.03;3.30;;;12.60;99.90;;;;;;4920479;29;20289;-86
2022/09/16 02:43:49;;;;;;;8.57;3.70;;;12.50;99.90;;;;;;4978015;23;20238;-86
2022/09/16 02:51:16;;;;;;;5.73;3.20;;;12.50;99.90;;;;;;4921582;29;20187;-86
2022/09/16 02:53:49;;;;;;;6.43;3.30;;;12.30;99.90;;;;;;4921541;29;20205;-86
2022/09/16 02:56:36;;;;;;;6.03;3.40;;;12.30;99.90;;;;;;4921687;29;20649;-87
2022/09/16 02:59:05;;;;;;;6.33;3.57;;;12.30;99.90;;;;;;4921480;29;20221;-88
2022/09/16 03:01:40;;;;;;;5.27;3.77;;;12.30;99.90;;;;;;4921552;29;20534;-86
2022/09/16 03:04:16;;;;;;;7.57;3.67;;;12.40;99.90;;;;;;4921439;29;20198;-85
2022/09/16 03:06:43;;;;;;;7.60;3.70;;;12.40;99.90;;;;;;4905638;29;20266;-85
2022/09/16 03:09:12;;;;;;;4.83;3.50;;;12.40;99.90;;;;;;4921961;29;20260;-89
2022/09/16 03:24:47;;;;;;;6.10;3.43;;;12.30;99.90;;;;;;4935919;28;20234;-87
2022/09/16 03:27:44;;;;;;;6.83;3.70;;;12.40;99.90;;;;;;4904267;29;20712;-86
2022/09/16 03:40:47;;;;;;;9.40;4.03;;;12.20;99.90;;;;;;5430408;23;20215;-90
2022/09/16 03:43:15;;;;;;;9.17;3.90;;;12.10;99.90;;;;;;4917629;29;20294;-89
2022/09/16 03:45:43;;;;;;;5.03;3.47;;;12.10;99.90;;;;;;4917417;29;20211;-90
2022/09/16 03:48:12;;;;;;;6.80;4.00;;;12.00;99.90;;;;;;4916814;29;20227;-91
2022/09/16 03:50:39;;;;;;;8.30;4.00;;;12.00;99.90;;;;;;4917147;29;20224;-87
2022/09/16 03:53:08;;;;;;;7.90;3.87;;;12.00;99.90;;;;;;4918492;29;20255;-92
2022/09/16 03:55:35;;;;;;;6.00;4.10;;;11.90;99.90;;;;;;4917234;29;20206;-88
2022/09/16 03:58:04;;;;;;;8.17;4.27;;;11.80;99.90;;;;;;4917189;29;20211;-87
2022/09/16 04:08:09;;;;;;;9.43;3.97;;;11.70;99.90;;;;;;5220021;23;20234;-84
2022/09/16 04:10:36;;;;;;;7.37;4.30;;;11.60;99.90;;;;;;4938893;29;20674;-86
2022/09/16 04:13:03;;;;;;;7.73;4.20;;;11.50;99.90;;;;;;4967871;23;20250;-86
2022/09/16 04:15:43;;;;;;;6.57;4.07;;;11.60;99.90;;;;;;4918665;29;20230;-87
2022/09/16 04:18:10;;;;;;;6.90;4.00;;;11.60;99.90;;;;;;4936660;29;20203;-86
2022/09/16 04:20:37;;;;;;;7.63;4.60;;;11.60;99.90;;;;;;4919549;29;20191;-87
2022/09/16 04:23:04;;;;;;;6.97;4.17;;;11.60;99.90;;;;;;4937235;29;20258;-87
2022/09/16 04:41:53;;;;;;;7.57;4.40;;;11.50;99.90;;;;;;4731862;26;20238;-85
2022/09/16 04:44:20;;;;;;;9.27;4.50;;;11.70;99.90;;;;;;4935599;29;20230;-85
2022/09/16 04:46:46;;;;;;;8.37;4.37;;;11.60;99.90;;;;;;4935822;29;20223;-89
2022/09/16 04:49:14;;;;;;;7.80;4.60;;;11.60;99.90;;;;;;4919054;29;20226;-85
2022/09/16 04:51:41;;;;;;;8.50;4.50;;;11.60;99.90;;;;;;4902262;29;20657;-89
2022/09/16 04:54:08;;;;;;;8.13;4.57;;;11.70;99.90;;;;;;4943786;23;20238;-88
2022/09/16 04:56:35;;;;;;;7.27;4.00;;;11.60;99.90;;;;;;4918921;29;20246;-88
2022/09/16 04:59:04;;;;;;;8.70;4.33;;;11.70;99.90;;;;;;4907081;29;20208;-88
2022/09/16 05:01:34;;;;;;;10.60;4.43;;;11.70;99.90;;;;;;4899437;29;20200;-84
2022/09/16 05:04:04;;;;;;;7.40;4.50;;;11.70;99.90;;;;;;4908848;29;20199;-84
2022/09/16 05:06:34;;;;;;;10.07;4.80;;;11.70;99.90;;;;;;4918926;29;20665;-84
2022/09/16 05:09:02;;;;;;;8.37;4.17;;;11.60;99.90;;;;;;4921837;29;20203;-85
2022/09/16 05:11:32;;;;;;;8.27;4.60;;;11.60;99.90;;;;;;4903173;29;20201;-82
2022/09/16 05:14:00;;;;;;;8.50;4.20;;;11.70;99.90;;;;;;4918892;29;20226;-81
2022/09/16 05:16:28;;;;;;;6.90;4.07;;;11.70;99.90;;;;;;5023665;23;20235;-84
2022/09/16 05:18:57;;;;;;;7.33;4.00;;;11.70;99.90;;;;;;4918529;29;20214;-82
2022/09/16 05:21:27;;;;;;;7.20;3.87;;;11.70;99.90;;;;;;4935778;29;20694;-82
2022/09/16 05:23:58;;;;;;;10.87;4.10;;;11.70;99.90;;;;;;4918697;29;20210;-85
2022/09/16 05:26:27;;;;;;;6.07;3.53;;;11.60;99.90;;;;;;4918769;29;20245;-83
2022/09/16 05:28:54;;;;;;;10.70;4.03;;;11.60;99.90;;;;;;4918670;29;20202;-84
2022/09/16 05:31:29;;;;;;;5.93;3.90;;;11.70;99.90;;;;;;4918737;29;20250;-82
2022/09/16 05:33:57;;;;;;;7.77;3.90;;;11.80;99.90;;;;;;4918560;29;20202;-84
2022/09/16 05:36:26;;;;;;;5.40;3.60;;;11.80;99.90;;;;;;4920563;29;20649;-82
2022/09/16 05:39:00;;;;;;;5.83;4.10;;;11.80;99.90;;;;;;4922219;29;20228;-84
2022/09/16 05:41:48;;;;;;;6.50;3.30;;;11.80;99.90;;;;;;4954636;29;20644;-80
2022/09/16 05:44:25;;;;;;;10.73;3.30;;;12.00;99.90;;;;;;5095628;23;20255;-86
2022/09/16 05:46:55;;;;;;;5.50;3.20;;;11.90;99.90;;;;;;4915239;29;20688;-84
2022/09/16 05:49:22;;;;;;;8.80;3.47;;;12.00;99.90;;;;;;4915219;29;20233;-83
2022/09/16 05:51:50;;;;;;;7.17;3.07;;;12.00;99.90;;;;;;4916342;29;20243;-81
2022/09/16 05:54:18;;;;;;;4.87;3.13;;;12.10;99.90;;;;;;4916578;29;20719;-82
2022/09/16 05:56:46;;;;;;;5.70;3.17;;;12.10;99.90;;;;;;4899908;29;20242;-83
2022/09/16 05:59:14;;;;;;;7.70;3.20;;;12.20;99.90;;;;;;4915493;29;20227;-83
2022/09/16 06:01:44;;;;;;;8.67;3.30;;;12.20;99.90;;;;;;4915515;29;20184;-84
2022/09/16 06:04:34;;;;;;;10.80;3.33;;;12.40;99.90;;;;;;4914688;29;20645;-84
2022/09/16 06:07:02;;;;;;;4.00;3.03;;;12.40;99.90;;;;;;4899192;29;20227;-83
2022/09/16 06:09:29;;;;;;;6.10;2.90;;;12.40;99.90;;;;;;4915117;29;20212;-84
2022/09/16 06:11:56;;;;;;;7.53;2.77;;;12.50;99.90;;;;;;4896617;29;20252;-74
2022/09/16 06:14:29;;;;;;;4.90;2.40;;;12.60;99.90;;;;;;4883462;29;20249;-76
2022/09/16 06:16:56;;;;;;;7.33;2.80;;;12.70;99.90;;;;;;4899307;29;20212;-77
2022/09/16 06:19:22;;;;;;;6.20;2.53;;;12.80;99.90;;;;;;4883477;29;20212;-74
2022/09/16 06:21:49;;;;;;;4.73;2.33;;;12.80;99.90;;;;;;4883261;29;20207;-74
2022/09/16 06:24:18;;;;;;;7.60;2.70;;;12.80;99.90;;;;;;4883410;29;20610;-74
2022/09/16 06:26:46;;;;;;;6.27;2.67;;;12.80;99.90;;;;;;4883075;29;20266;-76
2022/09/16 06:29:14;;;;;;;5.20;2.73;;;12.70;99.90;;;;;;4883271;29;20208;-75
2022/09/16 06:31:41;;;;;;;9.07;2.70;;;12.70;99.90;;;;;;4883240;29;20227;-75
2022/09/16 06:34:14;;;;;;;6.90;2.80;;;12.70;99.90;;;;;;4883398;29;20200;-77
2022/09/16 06:36:40;;;;;;;5.57;2.70;;;12.70;99.90;;;;;;4883256;29;20212;-76
2022/09/16 06:39:12;;;;;;;5.50;2.63;;;12.70;99.90;;;;;;4882963;29;20643;-76
2022/09/16 06:41:39;;;;;;;4.77;2.70;;;12.70;99.90;;;;;;4882947;29;20208;-74
2022/09/16 06:44:07;;;;;;;6.93;2.90;;;12.80;99.90;;;;;;4882555;29;20236;-74
2022/09/16 06:46:33;;;;;;;6.23;3.00;;;12.90;99.90;;;;;;4882989;29;20306;-75
2022/09/16 06:49:00;;;;;;;5.90;2.50;;;13.00;99.90;;;;;;4892290;29;20207;-76
2022/09/16 06:51:32;;;;;;;5.07;2.43;;;13.00;99.90;;;;;;4918155;29;20231;-77
2022/09/16 06:54:05;;;;;;;4.37;2.50;;;13.00;99.90;;;;;;4919218;29;20210;-77
2022/09/16 06:56:36;;;;;;;5.57;2.80;;;12.90;99.90;;;;;;4918028;29;20231;-77
2022/09/16 06:59:03;;;;;;;6.00;2.60;;;12.90;99.90;;;;;;4918177;29;20218;-76
2022/09/16 07:01:31;;;;;;;9.93;2.60;;;13.00;99.90;;;;;;4917905;29;20215;-76
2022/09/16 07:04:00;;;;;;;10.07;2.77;;;13.20;99.90;;;;;;4918140;29;20251;-76
2022/09/16 07:06:29;;;;;;;4.20;2.20;;;13.40;99.90;;;;;;4917750;29;20612;-76
2022/09/16 07:09:16;;;;;;;6.00;2.20;;;13.40;99.90;;;;;;4919152;29;20634;-76
2022/09/16 07:11:43;;;;;;;6.73;2.20;;;13.30;99.90;;;;;;4918003;29;20578;-76
2022/09/16 07:14:10;;;;;;;6.10;2.50;;;13.40;99.90;;;;;;4917854;29;20203;-75
2022/09/16 07:16:37;;;;;;;8.67;2.10;;;13.40;99.90;;;;;;4919119;29;20721;-75
2022/09/16 07:19:04;;;;;;;5.37;2.40;;;13.30;99.90;;;;;;4917977;29;20223;-75
2022/09/16 07:21:31;;;;;;;5.03;1.93;;;13.30;99.90;;;;;;4917998;29;20207;-75
2022/09/16 07:24:00;;;;;;;7.53;2.10;;;13.40;99.90;;;;;;4916716;29;20199;-74
2022/09/16 07:26:33;;;;;;;7.77;2.30;;;13.50;99.90;;;;;;4917893;29;20202;-76
2022/09/16 07:29:02;;;;;;;6.53;1.80;;;13.60;99.90;;;;;;4917615;29;20567;-74
2022/09/16 07:31:36;;;;;;;9.80;2.13;;;13.70;99.90;;;;;;4917579;29;20200;-72
2022/09/16 07:34:05;;;;;;;4.83;1.77;;;13.70;99.90;;;;;;4917452;29;20264;-73
2022/09/16 07:36:50;;;;;;;5.40;1.83;;;13.80;99.90;;;;;;4917622;29;20266;-72
2022/09/16 07:39:19;;;;;;;7.90;1.80;;;13.90;99.90;;;;;;4917360;29;20555;-72
2022/09/16 07:41:50;;;;;;;7.37;1.67;;;13.80;99.90;;;;;;4918578;29;20230;-75
2022/09/16 07:44:19;;;;;;;5.10;1.50;;;13.70;99.90;;;;;;4916842;29;20227;-73
2022/09/16 07:46:47;;;;;;;8.33;1.83;;;13.90;99.90;;;;;;4918501;29;20661;-73
2022/09/16 07:49:14;;;;;;;7.97;1.47;;;13.90;99.90;;;;;;4917153;29;20645;-73
2022/09/16 07:51:42;;;;;;;8.60;1.70;;;13.90;99.90;;;;;;4916824;29;20204;-74
2022/09/16 07:54:12;;;;;;;5.57;1.43;;;13.90;99.90;;;;;;4916843;29;20210;-73
2022/09/16 07:56:40;;;;;;;8.30;1.50;;;13.90;99.90;;;;;;4917497;29;20192;-74
2022/09/16 07:59:11;;;;;;;5.07;1.20;;;14.00;99.90;;;;;;4916773;29;20204;-73
2022/09/16 08:01:44;;;;;;;6.37;1.20;;;14.00;99.90;;;;;;4917108;29;20203;-72
2022/09/16 08:04:11;;;;;;;5.73;1.30;;;14.20;99.90;;;;;;4916905;29;20191;-73
2022/09/16 08:06:39;;;;;;;5.10;1.40;;;14.20;99.90;;;;;;4916687;29;20210;-72
2022/09/16 08:09:06;;;;;;;6.33;1.30;;;14.20;99.90;;;;;;4918172;29;20221;-73
2022/09/16 08:11:52;;;;;;;4.43;1.23;;;14.10;99.90;;;;;;4916728;29;20709;-73
2022/09/16 08:14:19;;;;;;;6.93;1.33;;;14.10;99.90;;;;;;4916594;29;20204;-73
2022/09/16 08:16:50;;;;;;;8.17;1.30;;;14.20;99.90;;;;;;4916829;29;20203;-73
2022/09/16 08:19:19;;;;;;;4.97;1.23;;;14.50;99.90;;;;;;4916525;29;20196;-74
2022/09/16 08:21:46;;;;;;;6.23;1.37;;;15.10;99.90;;;;;;4917755;29;20286;-74
2022/09/16 08:24:13;;;;;;;10.80;1.70;;;15.30;99.90;;;;;;4916309;29;20219;-73
2022/09/16 08:26:40;;;;;;;10.80;1.93;;;15.60;99.90;;;;;;4916799;29;20255;-74
2022/09/16 08:29:07;;;;;;;2.83;0.93;;;15.90;99.90;;;;;;4916375;29;20261;-73
2022/09/16 08:31:36;;;;;;;6.67;1.10;;;16.50;99.90;;;;;;4917652;29;20206;-72
2022/09/16 08:34:03;;;;;;;6.03;1.27;;;16.90;99.90;;;;;;4916636;29;20212;-72
2022/09/16 08:36:32;;;;;;;5.13;1.00;;;17.20;99.90;;;;;;4914036;29;20642;-71
2022/09/16 08:39:00;;;;;;;4.90;1.20;;;17.20;99.90;;;;;;4921142;29;20203;-71
2022/09/16 08:41:48;;;;;;;7.03;1.07;;;17.10;99.90;;;;;;4914413;29;20227;-71
2022/09/16 08:44:35;;;;;;;4.00;1.10;;;17.50;99.90;;;;;;4914618;29;20235;-75
2022/09/16 08:47:42;;;;;;;4.63;1.10;;;17.90;99.90;;;;;;4914537;29;20192;-71
2022/09/16 08:50:15;;;;;;;4.83;1.00;;;18.20;99.90;;;;;;4902363;29;20620;-72
2022/09/16 08:52:44;;;;;;;3.43;0.97;;;18.40;99.90;;;;;;4911993;29;20211;-70
2022/09/16 08:55:17;;;;;;;5.50;1.30;;;18.20;99.90;;;;;;4914262;29;20250;-72
2022/09/16 08:58:00;;;;;;;8.90;1.43;;;17.80;99.90;;;;;;4916183;29;20243;-73
2022/09/16 09:00:27;;;;;;;2.17;0.93;;;17.60;99.90;;;;;;4915840;29;20226;-72
2022/09/16 09:03:01;;;;;;;4.00;0.90;;;17.60;99.90;;;;;;4912728;29;20196;-71
2022/09/16 09:05:39;;;;;;;5.10;1.00;;;17.70;99.90;;;;;;4914239;29;20254;-72
2022/09/16 09:08:43;;;;;;;9.60;1.30;;;18.20;99.90;;;;;;4914873;29;20226;-71
2022/09/16 09:11:49;;;;;;;4.27;1.13;;;18.50;99.90;;;;;;4915498;29;20195;-72
2022/09/16 09:14:51;;;;;;;5.07;1.17;;;18.20;99.90;;;;;;4913684;29;20267;-71
2022/09/16 09:17:22;;;;;;;4.83;0.90;;;17.30;99.90;;;;;;4851777;29;20212;-70
2022/09/16 09:19:54;;;;;;;3.40;1.00;;;17.20;99.90;;;;;;4855079;29;20206;-71
2022/09/16 09:22:24;;;;;;;4.10;1.10;;;17.00;99.90;;;;;;4851529;29;20272;-72
2022/09/16 09:25:29;;;;;;;8.47;1.30;;;16.90;99.90;;;;;;4852792;29;20204;-72
2022/09/16 09:28:23;;;;;;;4.23;1.00;;;16.60;99.90;;;;;;4868216;29;20234;-72
2022/09/16 09:31:05;;;;;;;3.50;0.90;;;16.60;99.90;;;;;;4867003;29;20779;-74
2022/09/16 09:33:54;;;;;;;6.63;1.03;;;16.20;99.90;;;;;;4859770;29;20192;-70
2022/09/16 09:36:51;;;;;;;5.13;1.17;;;16.30;99.90;;;;;;4875742;29;20756;-70
2022/09/16 09:39:27;;;;;;;7.83;1.17;;;16.10;99.90;;;;;;4855821;29;20701;-69
2022/09/16 09:42:20;;;;;;;6.33;1.43;;;16.00;99.90;;;;;;4870861;29;20702;-70
2022/09/16 09:44:47;;;;;;;3.43;1.10;;;16.00;99.90;;;;;;4859052;29;20232;-72
2022/09/16 09:47:31;;;;;;;5.17;1.20;;;15.90;99.90;;;;;;4850843;29;20211;-70
2022/09/16 09:50:11;;;;;;;7.53;0.90;;;15.90;99.90;;;;;;4856087;29;20201;-72
2022/09/16 09:52:51;;;;;;;6.37;1.20;;;15.90;99.90;;;;;;4876204;29;20251;-72
2022/09/16 09:55:21;;;;;;;5.87;1.13;;;15.80;99.90;;;;;;4912396;29;20553;-76
2022/09/16 09:57:57;;;;;;;7.13;1.10;;;15.80;99.90;;;;;;4911097;29;20579;-75
2022/09/16 10:00:23;;;;;;;3.70;0.90;;;15.70;99.90;;;;;;4910135;29;20276;-75
2022/09/16 10:02:50;;;;;;;5.77;1.00;;;15.60;99.90;;;;;;4911381;29;20209;-73
2022/09/16 10:05:26;;;;;;;5.67;1.00;;;15.40;99.90;;;;;;4896948;29;20199;-72
2022/09/16 10:08:37;;;;;;;4.13;1.07;;;15.50;99.90;;;;;;4903841;29;20222;-73
2022/09/16 10:11:22;;;;;;;7.50;1.40;;;16.30;99.90;;;;;;4842868;29;20323;-74
2022/09/16 10:13:51;;;;;;;3.60;1.00;;;17.00;99.90;;;;;;4842884;29;20328;-73
2022/09/16 10:16:21;;;;;;;4.53;0.93;;;17.10;99.90;;;;;;4850501;29;20255;-73
2022/09/16 10:19:19;;;;;;;5.77;1.30;;;17.20;99.90;;;;;;4876726;29;20614;-72
2022/09/16 10:21:52;;;;;;;3.40;0.80;;;17.60;99.90;;;;;;4876511;29;20283;-75
2022/09/16 10:24:34;;;;;;;5.97;0.90;;;17.90;99.90;;;;;;4867887;29;20196;-73
2022/09/16 10:27:21;;;;;;;3.60;1.20;;;17.90;99.90;;;;;;4893365;29;20228;-71
2022/09/16 10:30:14;;;;;;;3.83;1.00;;;18.40;99.90;;;;;;4858124;29;20265;-72
2022/09/16 10:33:03;;;;;;;5.23;1.30;;;18.70;99.90;;;;;;4857734;29;20217;-72
2022/09/16 10:35:33;;;;;;;5.87;1.10;;;19.00;99.90;;;;;;4857708;29;20201;-74
2022/09/16 10:38:11;;;;;;;4.60;1.07;;;18.90;99.90;;;;;;4842263;29;20660;-74
2022/09/16 10:41:21;;;;;;;6.10;1.20;;;19.10;99.90;;;;;;4842234;29;20648;-75
2022/09/16 10:43:58;;;;;;;3.67;0.80;;;19.80;99.90;;;;;;4821246;29;20231;-74
2022/09/16 10:46:26;;;;;;;4.43;1.10;;;20.00;99.90;;;;;;4824509;29;20318;-72
2022/09/16 10:48:59;;;;;;;3.77;1.00;;;19.70;99.90;;;;;;4824145;29;20318;-71
2022/09/16 10:51:28;;;;;;;6.03;1.20;;;20.10;99.90;;;;;;4824072;29;20583;-75
2022/09/16 10:53:57;;;;;;;3.43;0.90;;;20.30;99.90;;;;;;4823708;29;20214;-70
2022/09/16 10:56:28;;;;;;;4.97;1.10;;;20.70;99.90;;;;;;4829087;29;20210;-74
2022/09/16 10:59:05;;;;;;;2.23;0.70;;;20.80;99.90;;;;;;4849782;29;20206;-75
2022/09/16 11:02:08;;;;;;;3.57;1.00;;;20.60;99.90;;;;;;4857936;29;20229;-71
2022/09/16 11:05:20;;;;;;;4.00;1.00;;;21.10;99.90;;;;;;4853077;29;20297;-75
2022/09/16 11:07:54;;;;;;;2.23;0.80;;;21.70;99.90;;;;;;4791661;29;20212;-71
2022/09/16 11:10:47;;;;;;;5.60;1.30;;;21.70;99.90;;;;;;4779894;29;20211;-73
2022/09/16 11:13:23;;;;;;;1.70;0.83;;;22.00;99.50;;;;;;4792959;29;20650;-73
2022/09/16 11:16:06;;;;;;;5.37;0.90;;;21.80;97.30;;;;;;4771554;30;20200;-75
2022/09/16 11:18:42;;;;;;;2.23;0.90;;;21.60;97.70;;;;;;4761860;29;20767;-77
2022/09/16 11:21:39;;;;;;;2.60;1.00;;;21.90;98.60;;;;;;4816312;29;20266;-76
2022/09/16 11:24:26;;;;;;;2.87;0.90;;;21.90;96.90;;;;;;4824726;29;20225;-72
2022/09/16 11:27:16;;;;;;;2.10;0.90;;;22.40;96.90;;;;;;4834273;29;20600;-73
2022/09/16 11:30:01;;;;;;;2.40;1.00;;;22.70;94.70;;;;;;4840377;29;20349;-72
2022/09/16 11:32:35;;;;;;;2.13;0.90;;;22.40;95.40;;;;;;4832119;29;20243;-71
2022/09/16 11:35:31;;;;;;;3.03;1.00;;;21.70;95.30;;;;;;4834400;29;20266;-73
2022/09/16 11:38:22;;;;;;;2.20;1.00;;;20.60;96.40;;;;;;4853373;29;20211;-73
2022/09/16 11:41:04;;;;;;;3.60;1.10;;;19.80;97.10;;;;;;4915033;29;20287;-72
2022/09/16 11:44:26;;;;;;;2.53;1.00;;;18.90;98.90;;;;;;4915933;29;20235;-73
2022/09/16 11:47:11;;;;;;;5.43;0.80;;;18.90;99.40;;;;;;4862313;29;20201;-72
2022/09/16 11:50:06;;;;;;;3.87;0.90;;;20.10;98.70;;;;;;4875026;29;20223;-75
2022/09/16 11:53:05;;;;;;;4.33;1.10;;;21.00;98.40;;;;;;4858424;29;20233;-80
2022/09/16 11:55:51;;;;;;;4.10;1.20;;;22.00;97.60;;;;;;4822934;29;20223;-78
2022/09/16 11:58:49;;;;;;;1.83;0.90;;;22.80;95.90;;;;;;4809394;29;20214;-77
2022/09/16 12:01:34;;;;;;;3.27;1.00;;;22.20;95.80;;;;;;4823145;29;20238;-73
2022/09/16 12:04:27;;;;;;;3.57;1.10;;;20.90;97.70;;;;;;4808413;29;20209;-73
2022/09/16 12:07:28;;;;;;;2.60;1.00;;;20.30;98.40;;;;;;4807138;29;20698;-88
2022/09/16 12:10:03;;;;;;;3.20;0.67;;;20.80;96.80;;;;;;4795075;29;20261;-73
2022/09/16 12:12:41;;;;;;;2.30;0.80;;;21.60;94.90;;;;;;4823203;29;20213;-76
2022/09/16 12:15:19;;;;;;;3.63;0.87;;;21.00;93.10;;;;;;4816369;29;20202;-74
2022/09/16 12:18:22;;;;;;;3.23;0.80;;;20.70;94.60;;;;;;4823383;29;20198;-73
2022/09/16 12:21:03;;;;;;;4.17;1.20;;;21.60;93.90;;;;;;4818795;29;20213;-80
2022/09/16 12:23:34;;;;;;;5.37;0.97;;;22.20;93.40;;;;;;4857830;29;20241;-78
2022/09/16 12:26:18;;;;;;;2.63;0.90;;;22.90;92.30;;;;;;4857141;29;20210;-77
2022/09/16 12:29:05;;;;;;;2.67;0.90;;;23.40;90.10;;;;;;4857780;29;20233;-71
2022/09/16 12:31:40;;;;;;;2.77;0.90;;;23.80;87.80;;;;;;4874571;29;20202;-77
2022/09/16 12:34:15;;;;;;;2.63;0.90;;;23.60;88.50;;;;;;4914700;29;20199;-79
2022/09/16 12:36:47;;;;;;;2.67;1.10;;;23.90;87.50;;;;;;4915531;29;20202;-75
2022/09/16 12:39:14;;;;;;;1.67;0.90;;;23.20;88.40;;;;;;4914574;29;20199;-76
2022/09/16 12:42:18;;;;;;;3.47;1.17;;;21.90;90.90;;;;;;4914078;29;20199;-74
2022/09/16 12:45:01;;;;;;;1.17;0.70;;;20.50;93.00;;;;;;4930018;29;20731;-78
2022/09/16 12:47:53;;;;;;;3.10;0.80;;;20.50;92.50;;;;;;4918331;29;20266;-76
2022/09/16 12:50:46;;;;;;;2.90;0.70;;;20.80;91.50;;;;;;4919284;29;20230;-76
2022/09/16 12:53:39;;;;;;;5.07;0.90;;;20.80;92.30;;;;;;4919300;29;20183;-78
2022/09/16 12:56:37;;;;;;;2.87;0.60;;;21.20;88.90;;;;;;4936482;29;20202;-75
2022/09/16 12:59:11;;;;;;;2.03;0.70;;;20.90;89.40;;;;;;4920008;29;20207;-76
2022/09/16 13:01:44;;;;;;;1.80;0.80;;;20.70;90.40;;;;;;4919650;29;20219;-81
2022/09/16 13:04:19;;;;;;;2.53;0.80;;;20.20;91.00;;;;;;4919211;29;20720;-81
2022/09/16 13:06:52;;;;;;;3.77;1.00;;;19.90;92.40;;;;;;4919238;29;20254;-78
2022/09/16 13:09:24;;;;;;;2.10;0.80;;;19.30;91.80;;;;;;4918814;29;20293;-78
2022/09/16 13:12:00;;;;;;;3.93;0.87;;;19.00;92.40;;;;;;4903206;29;20207;-77
2022/09/16 13:14:57;;;;;;;7.60;0.90;;;18.60;92.80;;;;;;4918820;29;20191;-78
2022/09/16 13:17:37;;;;;;;3.30;1.00;;;18.40;93.70;;;;;;4919289;29;20205;-77
2022/09/16 13:20:15;;;;;;;3.93;0.80;;;18.40;94.20;;;;;;4915262;29;20254;-78
2022/09/16 13:22:54;;;;;;;4.60;0.90;;;18.40;94.90;;;;;;4916752;29;20225;-76
2022/09/16 13:25:43;;;;;;;2.80;0.77;;;18.50;95.70;;;;;;4918603;29;20207;-77
2022/09/16 13:28:26;;;;;;;2.53;0.90;;;18.30;96.10;;;;;;4918751;29;20202;-76
2022/09/16 13:31:08;;;;;;;4.10;1.00;;;18.20;96.20;;;;;;4918885;29;20230;-77
2022/09/16 13:33:37;;;;;;;2.80;0.90;;;18.10;95.70;;;;;;4921515;29;20282;-81
2022/09/16 13:36:22;;;;;;;4.10;0.97;;;18.20;95.30;;;;;;4919428;29;20198;-81
2022/09/16 13:38:51;;;;;;;3.30;0.90;;;18.10;95.80;;;;;;4918921;29;20199;-78
2022/09/16 13:41:37;;;;;;;1.67;0.80;;;17.90;95.20;;;;;;4907352;29;20721;-80
2022/09/16 13:44:29;;;;;;;4.57;1.17;;;17.80;95.30;;;;;;4899826;29;20250;-76
2022/09/16 13:47:08;;;;;;;2.47;0.80;;;17.90;95.20;;;;;;4901734;29;20229;-80
2022/09/16 13:49:48;;;;;;;1.33;0.63;;;18.10;94.60;;;;;;4901349;29;20223;-84
2022/09/16 13:52:29;;;;;;;2.73;0.83;;;18.00;93.90;;;;;;4900724;29;20215;-81
2022/09/16 13:55:02;;;;;;;2.47;0.70;;;17.80;94.20;;;;;;4899501;29;20203;-76
2022/09/16 13:58:31;;;;;;;2.30;0.90;;;17.90;94.30;;;;;;4903987;29;20202;-79
2022/09/16 14:01:24;;;;;;;2.00;0.80;;;18.00;94.80;;;;;;4918205;29;20223;-82
2022/09/16 14:04:24;;;;;;;2.60;0.80;;;17.90;95.00;;;;;;4935321;29;20199;-78
2022/09/16 14:07:21;;;;;;;4.47;1.10;;;17.80;94.80;;;;;;4918114;29;20566;-79
2022/09/16 14:10:06;;;;;;;2.13;0.77;;;17.60;95.60;;;;;;4918140;29;20680;-80
2022/09/16 14:12:51;;;;;;;2.07;0.80;;;17.60;95.90;;;;;;4918223;29;20217;-80
2022/09/16 14:15:19;;;;;;;1.83;0.90;;;17.50;95.60;;;;;;4918047;29;20647;-79
2022/09/16 14:17:52;;;;;;;2.37;0.80;;;17.40;95.40;;;;;;4918332;29;20254;-80
2022/09/16 14:20:22;;;;;;;2.57;1.00;;;17.30;95.60;;;;;;4935029;29;20218;-76
2022/09/16 14:23:22;;;;;;;2.97;0.83;;;17.30;95.90;;;;;;4918233;29;20222;-73
2022/09/16 14:25:49;;;;;;;1.73;0.80;;;17.50;96.10;;;;;;4841248;29;20210;-77
2022/09/16 14:28:22;;;;;;;4.00;1.10;;;17.60;95.90;;;;;;4855913;29;20213;-73
2022/09/16 14:30:52;;;;;;;2.77;0.80;;;17.50;96.50;;;;;;4854870;29;20198;-78
2022/09/16 14:33:27;;;;;;;1.40;0.87;;;17.50;96.70;;;;;;4842619;29;20206;-80
2022/09/16 14:35:55;;;;;;;3.93;1.23;;;17.50;97.30;;;;;;4843309;29;20212;-79
2022/09/16 14:38:37;;;;;;;2.63;1.20;;;17.50;97.20;;;;;;4846098;29;20356;-75
2022/09/16 14:41:22;;;;;;;1.83;0.90;;;17.50;97.40;;;;;;4843981;29;20197;-81
2022/09/16 14:43:50;;;;;;;2.17;0.90;;;17.60;97.80;;;;;;4843546;29;20263;-78
2022/09/16 14:46:17;;;;;;;2.00;0.90;;;17.60;97.60;;;;;;4848377;29;20583;-79
2022/09/16 14:48:44;;;;;;;2.57;1.00;;;17.60;97.50;;;;;;4858653;29;20218;-76
2022/09/16 14:51:25;;;;;;;6.80;0.80;;;17.60;97.60;;;;;;4828408;29;20638;-81
2022/09/16 14:53:57;;;;;;;4.03;0.90;;;17.50;96.70;;;;;;4859997;29;20250;-74
2022/09/16 14:56:38;;;;;;;5.07;0.70;;;17.40;97.10;;;;;;4838316;29;20206;-74
2022/09/16 14:59:10;;;;;;;2.60;0.80;;;17.30;96.70;;;;;;4848264;29;20240;-78
2022/09/16 15:01:38;;;;;;;2.17;1.10;;;17.30;96.90;;;;;;4861178;29;20699;-74
2022/09/16 15:04:13;;;;;;;2.03;1.00;;;17.10;97.20;;;;;;4934165;29;20191;-73
2022/09/16 15:06:46;;;;;;;2.07;0.77;;;17.10;97.60;;;;;;4925670;29;20196;-74
2022/09/16 15:09:47;;;;;;;1.90;0.83;;;16.90;97.80;;;;;;4922749;29;20218;-75
2022/09/16 15:12:30;;;;;;;2.87;1.00;;;16.70;98.30;;;;;;4826818;29;21014;-74
2022/09/16 15:15:05;;;;;;;3.43;1.10;;;16.70;98.80;;;;;;4842417;29;20202;-76
2022/09/16 15:17:33;;;;;;;1.70;1.00;;;16.70;99.00;;;;;;4827522;29;20276;-78
2022/09/16 15:19:59;;;;;;;1.70;0.83;;;16.80;99.40;;;;;;4843060;29;20691;-86
2022/09/16 15:22:27;;;;;;;4.00;1.10;;;16.80;99.50;;;;;;4817130;29;20214;-83
2022/09/16 15:24:58;;;;;;;2.33;0.80;;;16.80;99.60;;;;;;4817230;29;20686;-76